Time;durP1;ratioP1;P1;durP2;ratioP2;P2;SDS_P1;SDS_P2;PMS_P1;PMS_P2;Temp;Humidity;BMP_temperature;BMP_pressure;BME280_temperature;BME280_humidity;BME280_pressure;Samples;Min_cycle;Max_cycle;Signal;HPM_P1;HPM_P2
2021/12/31 00:00:29;;;;;;;3.95;1.70;;;;;;;12.98;79.35;101755.00;5085147;28;20090;-67
2021/12/31 00:02:57;;;;;;;5.35;1.80;;;;;;;12.98;79.62;101757.69;5075042;28;20068;-66
2021/12/31 00:05:27;;;;;;;6.78;2.05;;;;;;;12.98;79.56;101756.88;5066894;28;20072;-66
2021/12/31 00:07:55;;;;;;;5.60;2.10;;;;;;;12.98;79.71;101763.09;5066713;28;20083;-66
2021/12/31 00:10:23;;;;;;;7.78;2.08;;;;;;;12.97;79.22;101761.44;5073498;28;20083;-67
2021/12/31 00:12:51;;;;;;;5.70;1.77;;;;;;;12.97;79.59;101763.31;5068088;28;20053;-66
2021/12/31 00:15:19;;;;;;;4.38;2.25;;;;;;;12.98;79.17;101759.56;5079043;28;20076;-66
2021/12/31 00:17:47;;;;;;;8.63;1.92;;;;;;;12.98;79.20;101765.78;5065198;28;20048;-66
2021/12/31 00:20:18;;;;;;;4.45;1.70;;;;;;;12.96;79.32;101767.88;5074461;28;20056;-66
2021/12/31 00:23:01;;;;;;;4.30;2.10;;;;;;;12.97;79.15;101760.59;5068635;28;20048;-66
2021/12/31 00:25:29;;;;;;;4.53;1.60;;;;;;;12.97;79.28;101764.13;5065542;28;20207;-67
2021/12/31 00:27:57;;;;;;;8.25;1.80;;;;;;;12.96;79.07;101767.06;5084912;28;20055;-66
2021/12/31 00:30:25;;;;;;;3.53;1.80;;;;;;;12.96;79.30;101767.88;5073462;28;20076;-67
2021/12/31 00:32:53;;;;;;;5.07;1.67;;;;;;;12.96;79.44;101775.16;5084901;28;20052;-66
2021/12/31 00:35:21;;;;;;;5.13;2.22;;;;;;;12.96;79.47;101781.38;5076309;28;20049;-66
2021/12/31 00:37:50;;;;;;;2.80;1.60;;;;;;;12.97;79.48;101779.50;5065074;28;20107;-66
2021/12/31 00:40:19;;;;;;;6.68;2.08;;;;;;;12.96;78.96;101773.28;5074417;28;20076;-66
2021/12/31 00:42:48;;;;;;;6.20;1.60;;;;;;;12.96;79.26;101784.06;5066768;28;20080;-66
2021/12/31 00:45:17;;;;;;;4.90;1.70;;;;;;;12.96;79.11;101778.66;5074052;28;20056;-66
2021/12/31 00:47:45;;;;;;;4.47;1.80;;;;;;;12.95;79.07;101777.00;5082959;28;20095;-66
2021/12/31 00:50:14;;;;;;;8.13;2.00;;;;;;;12.96;79.00;101780.53;5081018;28;20045;-66
2021/12/31 00:52:43;;;;;;;6.65;2.22;;;;;;;12.95;79.05;101781.59;5080802;28;20053;-66
2021/12/31 00:55:13;;;;;;;8.43;1.92;;;;;;;12.87;79.35;101769.16;5065078;28;20055;-66
2021/12/31 00:57:41;;;;;;;4.65;1.83;;;;;;;12.95;78.53;101773.50;5084137;28;20080;-66
2021/12/31 01:00:12;;;;;;;4.57;1.92;;;;;;;12.97;78.88;101776.81;4366844;28;10000816;-66
2021/12/31 01:02:40;;;;;;;4.55;1.73;;;;;;;12.98;78.65;101773.88;5077622;28;20084;-66
2021/12/31 01:05:09;;;;;;;3.45;2.00;;;;;;;12.98;78.71;101773.06;5079946;28;20059;-66
2021/12/31 01:07:37;;;;;;;4.80;2.15;;;;;;;12.97;78.68;101772.22;5062921;28;20056;-66
2021/12/31 01:10:06;;;;;;;5.95;2.00;;;;;;;12.94;78.65;101771.84;5059906;28;20365;-68
2021/12/31 01:12:35;;;;;;;3.72;1.70;;;;;;;12.96;78.63;101773.28;5079544;28;20144;-67
2021/12/31 01:15:06;;;;;;;9.60;2.15;;;;;;;12.95;78.90;101766.22;5083913;28;20080;-68
2021/12/31 01:17:48;;;;;;;5.28;2.03;;;;;;;12.94;78.67;101769.97;5070811;28;20555;-66
2021/12/31 01:20:18;;;;;;;5.97;1.77;;;;;;;12.94;78.57;101766.44;5063092;28;20447;-66
2021/12/31 01:22:46;;;;;;;5.18;1.73;;;;;;;12.93;79.08;101765.59;5060455;28;20045;-66
2021/12/31 01:25:15;;;;;;;6.68;2.28;;;;;;;12.90;79.07;101760.63;5060634;28;20068;-66
2021/12/31 01:27:44;;;;;;;4.05;1.83;;;;;;;12.90;78.68;101776.00;5063478;28;20048;-66
2021/12/31 01:30:14;;;;;;;6.38;2.28;;;;;;;12.89;79.14;101769.78;5083532;28;20080;-66
2021/12/31 01:32:44;;;;;;;4.30;1.60;;;;;;;12.88;78.83;101768.13;5070633;28;20057;-66
2021/12/31 01:35:13;;;;;;;8.02;3.17;;;;;;;12.82;78.99;101763.59;5078642;28;20037;-66
2021/12/31 01:37:41;;;;;;;6.55;1.80;;;;;;;12.88;78.91;101775.38;5067172;28;20067;-66
2021/12/31 01:40:10;;;;;;;6.20;1.80;;;;;;;12.88;79.00;101778.09;5072872;28;20049;-66
2021/12/31 01:42:38;;;;;;;5.53;1.58;;;;;;;12.87;79.04;101771.03;5065461;28;20067;-66
2021/12/31 01:45:13;;;;;;;5.55;1.90;;;;;;;12.87;78.98;101773.72;5063621;28;20075;-66
2021/12/31 01:47:59;;;;;;;5.28;2.30;;;;;;;12.85;78.66;101771.25;5067925;28;20064;-66
2021/12/31 01:50:29;;;;;;;3.17;1.58;;;;;;;12.85;78.53;101770.41;5078435;28;20087;-66
2021/12/31 01:52:57;;;;;;;4.25;2.30;;;;;;;12.85;78.68;101782.03;5079325;28;20048;-66
2021/12/31 01:55:28;;;;;;;4.57;1.80;;;;;;;12.82;78.82;101779.78;5076001;28;20068;-66
2021/12/31 01:57:56;;;;;;;5.18;1.85;;;;;;;12.83;78.70;101770.63;5071207;28;20068;-66
2021/12/31 02:00:26;;;;;;;2.67;1.45;;;;;;;12.84;79.04;101777.69;5077213;28;20133;-66
2021/12/31 02:02:55;;;;;;;3.95;1.60;;;;;;;12.85;78.88;101773.13;5075589;28;20052;-67
2021/12/31 02:05:23;;;;;;;4.82;1.75;;;;;;;12.85;78.89;101779.34;5076116;28;20062;-67
2021/12/31 02:07:51;;;;;;;4.82;1.58;;;;;;;12.85;78.97;101782.03;5062823;28;20049;-67
2021/12/31 02:10:19;;;;;;;3.90;2.05;;;;;;;12.84;78.56;101777.69;5066870;28;20547;-66
2021/12/31 02:12:49;;;;;;;5.30;2.08;;;;;;;12.85;78.79;101781.22;5069352;28;20068;-66
2021/12/31 02:15:18;;;;;;;4.07;1.92;;;;;;;12.85;78.62;101784.75;5062428;28;20049;-66
2021/12/31 02:17:48;;;;;;;5.28;1.40;;;;;;;12.85;78.68;101776.66;5063617;28;20087;-66
2021/12/31 02:20:19;;;;;;;3.55;1.58;;;;;;;12.85;78.81;101779.34;5069763;28;20048;-66
2021/12/31 02:22:54;;;;;;;5.90;1.60;;;;;;;12.86;78.62;101782.88;5064198;28;20100;-66
2021/12/31 02:25:24;;;;;;;7.68;1.95;;;;;;;12.85;78.90;101773.94;5070172;28;20057;-66
2021/12/31 02:27:51;;;;;;;2.55;1.65;;;;;;;12.85;78.45;101773.13;5066682;28;20088;-66
2021/12/31 02:30:19;;;;;;;3.40;2.42;;;;;;;12.85;78.36;101776.66;5063175;28;20048;-66
2021/12/31 02:32:47;;;;;;;2.88;1.52;;;;;;;12.85;78.39;101773.94;5078203;28;20044;-66
2021/12/31 02:35:15;;;;;;;3.30;1.60;;;;;;;12.81;79.01;101763.78;5069241;28;20048;-67
2021/12/31 02:37:44;;;;;;;3.83;1.25;;;;;;;12.84;78.35;101774.16;5064769;28;20041;-66
2021/12/31 02:40:15;;;;;;;3.45;1.10;;;;;;;12.84;78.93;101766.91;5072216;28;20087;-66
2021/12/31 02:42:43;;;;;;;3.30;1.88;;;;;;;12.83;78.36;101769.81;5065054;28;20072;-66
2021/12/31 02:45:12;;;;;;;5.22;1.50;;;;;;;12.83;78.73;101761.72;5076489;28;20048;-66
2021/12/31 02:47:45;;;;;;;5.18;1.80;;;;;;;12.82;78.86;101762.75;5052283;28;20045;-66
2021/12/31 02:50:15;;;;;;;4.50;1.45;;;;;;;12.82;78.39;101765.44;5077266;28;20044;-66
2021/12/31 02:52:46;;;;;;;3.80;1.80;;;;;;;12.81;78.94;101756.53;5063954;28;20131;-67
2021/12/31 02:55:14;;;;;;;4.15;1.55;;;;;;;12.77;78.66;101755.31;5067558;28;20083;-66
2021/12/31 02:57:43;;;;;;;8.10;2.45;;;;;;;12.79;78.56;101768.56;5066085;28;20052;-66
2021/12/31 03:00:14;;;;;;;3.75;1.65;;;;;;;12.79;78.46;101766.72;5079850;28;20052;-66
2021/12/31 03:02:42;;;;;;;5.15;1.55;;;;;;;12.79;78.96;101757.78;5077333;28;20056;-66
2021/12/31 03:05:10;;;;;;;4.28;1.67;;;;;;;12.78;78.53;101756.97;5070121;28;20072;-67
2021/12/31 03:07:39;;;;;;;7.00;1.40;;;;;;;12.77;78.68;101758.00;5074548;28;20090;-66
2021/12/31 03:10:10;;;;;;;3.95;1.77;;;;;;;12.78;78.30;101764.22;5073696;28;20036;-66
2021/12/31 03:12:39;;;;;;;4.88;1.40;;;;;;;12.70;78.74;101760.72;5065100;28;20045;-67
2021/12/31 03:15:08;;;;;;;5.18;1.67;;;;;;;12.75;78.88;101765.47;5067128;28;20045;-67
2021/12/31 03:17:36;;;;;;;2.45;1.50;;;;;;;12.76;78.49;101763.59;5073845;28;20060;-67
2021/12/31 03:20:09;;;;;;;3.40;1.38;;;;;;;12.74;78.70;101755.72;5062168;28;20076;-68
2021/12/31 03:22:37;;;;;;;4.22;1.70;;;;;;;12.75;78.65;101753.88;5081798;28;20391;-67
2021/12/31 03:25:06;;;;;;;4.60;1.60;;;;;;;12.74;78.33;101749.50;5072209;28;20086;-67
2021/12/31 03:27:36;;;;;;;5.47;1.88;;;;;;;12.74;78.80;101749.50;5053628;28;20389;-68
2021/12/31 03:30:05;;;;;;;3.60;1.70;;;;;;;12.74;78.33;101744.94;5071487;28;20533;-68
2021/12/31 03:32:33;;;;;;;6.90;1.70;;;;;;;12.74;78.86;101747.63;5060823;28;20068;-67
2021/12/31 03:35:01;;;;;;;5.90;2.10;;;;;;;12.73;78.59;101740.59;5084745;28;20405;-68
2021/12/31 03:37:28;;;;;;;2.70;1.60;;;;;;;12.73;78.42;101743.28;5078413;28;20076;-68
2021/12/31 03:39:56;;;;;;;6.13;1.75;;;;;;;12.73;78.62;101743.28;5080431;28;20190;-68
2021/12/31 03:42:24;;;;;;;6.53;1.60;;;;;;;12.74;78.17;101736.03;5085276;28;20125;-67
2021/12/31 03:44:53;;;;;;;4.32;1.90;;;;;;;12.73;78.65;101740.59;5082380;28;20171;-67
2021/12/31 03:47:21;;;;;;;7.00;1.73;;;;;;;12.72;78.30;101733.53;5081704;28;20045;-67
2021/12/31 03:49:49;;;;;;;5.38;1.98;;;;;;;12.73;78.60;101728.97;5065686;28;20074;-67
2021/12/31 03:52:16;;;;;;;4.35;2.03;;;;;;;12.73;78.41;101729.81;5083802;28;20067;-68
2021/12/31 03:54:44;;;;;;;5.03;2.10;;;;;;;12.72;78.40;101728.16;5075017;28;20170;-68
2021/12/31 03:57:12;;;;;;;5.22;1.80;;;;;;;12.71;78.27;101732.72;5079438;28;20067;-67
2021/12/31 03:59:40;;;;;;;6.63;1.92;;;;;;;12.71;78.57;101729.19;5077801;28;20086;-67
2021/12/31 04:02:09;;;;;;;4.05;1.98;;;;;;;12.72;78.23;101725.44;5085774;28;20095;-67
2021/12/31 04:04:37;;;;;;;4.93;2.08;;;;;;;12.71;78.41;101737.28;5085267;28;20151;-67
2021/12/31 04:07:05;;;;;;;4.70;1.90;;;;;;;12.71;78.49;101737.28;5082972;28;20072;-67
2021/12/31 04:09:32;;;;;;;4.90;1.70;;;;;;;12.70;78.45;101732.94;5067603;28;20079;-67
2021/12/31 04:12:00;;;;;;;7.85;2.75;;;;;;;12.69;78.52;101733.97;5065101;28;20053;-68
2021/12/31 04:14:28;;;;;;;6.85;1.92;;;;;;;12.68;78.50;101740.41;5072974;28;20048;-67
2021/12/31 04:16:55;;;;;;;4.80;2.03;;;;;;;12.68;78.25;101740.41;5065932;28;20592;-67
2021/12/31 04:19:25;;;;;;;4.22;1.80;;;;;;;12.68;78.33;101740.41;5082160;28;20067;-67
2021/12/31 04:21:52;;;;;;;5.57;2.13;;;;;;;12.66;78.47;101740.63;5069191;28;20087;-67
2021/12/31 04:24:50;;;;;;;3.53;1.60;;;;;;;12.66;78.32;101745.19;5081242;28;20056;-67
2021/12/31 04:27:15;;;;;;;4.22;1.83;;;;;;;12.65;78.36;101747.06;5064008;28;20075;-68
2021/12/31 04:29:49;;;;;;;5.45;2.05;;;;;;;12.66;78.73;101745.19;5076303;28;20095;-67
2021/12/31 04:32:17;;;;;;;5.22;1.98;;;;;;;12.65;78.41;101743.53;5078415;28;20106;-68
2021/12/31 04:34:46;;;;;;;2.15;1.23;;;;;;;12.64;78.57;101731.91;5085290;28;20110;-67
2021/12/31 04:37:14;;;;;;;6.20;2.40;;;;;;;12.63;78.29;101726.72;5083946;28;20045;-67
2021/12/31 04:39:42;;;;;;;4.53;2.03;;;;;;;12.63;78.62;101722.16;5078634;28;20080;-68
2021/12/31 04:42:10;;;;;;;3.28;1.88;;;;;;;12.63;78.51;101724.03;5084331;28;20074;-67
2021/12/31 04:44:38;;;;;;;5.05;2.25;;;;;;;12.63;78.54;101718.66;5082398;28;20163;-67
2021/12/31 04:47:05;;;;;;;5.93;1.88;;;;;;;12.62;78.47;101711.59;5085552;28;20078;-68
2021/12/31 04:49:33;;;;;;;5.93;1.67;;;;;;;12.62;78.45;101722.38;5071290;28;20465;-67
2021/12/31 04:52:03;;;;;;;9.73;2.70;;;;;;;12.62;78.56;101715.13;5084758;28;20075;-67
2021/12/31 04:54:30;;;;;;;5.55;1.70;;;;;;;12.60;78.27;101721.75;5058215;28;20053;-68
2021/12/31 04:56:59;;;;;;;6.03;2.20;;;;;;;12.60;78.65;101724.47;5073337;28;20113;-68
2021/12/31 04:59:27;;;;;;;4.93;1.75;;;;;;;12.61;78.38;101723.41;5080424;28;20079;-67
2021/12/31 05:01:55;;;;;;;5.10;2.05;;;;;;;12.61;78.47;101728.81;5069684;28;20246;-68
2021/12/31 05:04:23;;;;;;;5.22;2.13;;;;;;;12.62;78.14;101725.06;5065885;28;20076;-67
2021/12/31 05:06:51;;;;;;;6.18;2.17;;;;;;;12.62;78.41;101720.50;5068371;28;20072;-68
2021/12/31 05:09:20;;;;;;;7.32;2.22;;;;;;;12.61;78.31;101720.72;5068789;28;20045;-67
2021/12/31 05:11:48;;;;;;;4.72;2.63;;;;;;;12.62;78.52;101723.22;5078641;28;20049;-65
2021/12/31 05:14:16;;;;;;;4.75;1.60;;;;;;;12.54;78.11;101712.66;5078303;28;20048;-66
2021/12/31 05:16:44;;;;;;;7.60;1.95;;;;;;;12.62;78.39;101725.06;5075547;28;20048;-66
2021/12/31 05:19:12;;;;;;;4.78;1.60;;;;;;;12.62;78.39;101731.28;5071500;28;20060;-66
2021/12/31 05:21:39;;;;;;;5.55;1.60;;;;;;;12.66;77.88;101716.34;5075337;28;20076;-66
2021/12/31 05:24:07;;;;;;;4.28;1.80;;;;;;;12.62;77.93;101717.81;5070564;28;20193;-66
2021/12/31 05:26:37;;;;;;;7.28;1.92;;;;;;;12.64;78.19;101720.28;5069083;28;20045;-66
2021/12/31 05:29:04;;;;;;;3.72;1.90;;;;;;;12.62;78.07;101712.41;5066160;28;20049;-66
2021/12/31 05:31:32;;;;;;;3.60;1.70;;;;;;;12.62;78.33;101714.28;5063932;28;20080;-66
2021/12/31 05:34:00;;;;;;;4.30;1.95;;;;;;;12.62;77.85;101711.59;5078668;28;20041;-66
2021/12/31 05:36:27;;;;;;;6.28;2.08;;;;;;;12.61;77.99;101712.63;5064803;28;20060;-66
2021/12/31 05:38:55;;;;;;;6.88;2.65;;;;;;;12.60;78.16;101703.72;5073936;28;20067;-66
2021/12/31 05:41:23;;;;;;;5.05;2.25;;;;;;;12.64;78.06;101699.56;5078526;28;20091;-66
2021/12/31 05:43:52;;;;;;;5.18;2.05;;;;;;;12.62;77.79;101700.81;5076301;28;20076;-66
2021/12/31 05:46:20;;;;;;;9.10;2.08;;;;;;;12.61;77.74;101699.16;5066982;28;20045;-66
2021/12/31 05:48:48;;;;;;;4.70;1.80;;;;;;;12.59;77.91;101690.44;5065010;28;20106;-66
2021/12/31 05:51:15;;;;;;;5.90;1.92;;;;;;;12.54;78.33;101684.88;5070769;28;20040;-66
2021/12/31 05:53:43;;;;;;;5.18;1.92;;;;;;;12.55;78.17;101675.75;5055047;28;20048;-66
2021/12/31 05:56:11;;;;;;;5.30;2.03;;;;;;;12.55;77.88;101678.44;5066607;28;20045;-66
2021/12/31 05:58:39;;;;;;;5.32;1.98;;;;;;;12.46;78.01;101658.16;5072796;28;20064;-66
2021/12/31 06:01:08;;;;;;;6.57;1.90;;;;;;;12.52;78.29;101666.22;5073812;28;20080;-66
2021/12/31 06:03:36;;;;;;;4.63;2.00;;;;;;;12.51;78.26;101659.16;5063135;28;20433;-66
2021/12/31 06:06:04;;;;;;;6.50;1.95;;;;;;;12.51;78.24;101677.22;5063721;28;20075;-66
2021/12/31 06:08:32;;;;;;;6.50;1.80;;;;;;;12.50;77.88;101664.78;5071988;28;20070;-66
2021/12/31 06:11:00;;;;;;;2.95;1.77;;;;;;;12.49;77.96;101685.50;5070998;28;20049;-66
2021/12/31 06:13:27;;;;;;;6.75;1.77;;;;;;;12.49;77.95;101680.13;5081386;28;20147;-66
2021/12/31 06:15:58;;;;;;;5.97;2.17;;;;;;;12.48;77.99;101677.63;5065594;28;20068;-66
2021/12/31 06:18:28;;;;;;;2.50;1.73;;;;;;;12.44;78.35;101671.03;5069181;28;20037;-67
2021/12/31 06:20:56;;;;;;;7.75;2.13;;;;;;;12.56;77.55;101690.88;5056695;28;20041;-66
2021/12/31 06:23:23;;;;;;;5.97;1.80;;;;;;;12.65;77.22;101678.81;5076955;28;20071;-66
2021/12/31 06:25:51;;;;;;;3.58;1.98;;;;;;;12.80;76.96;101692.00;5062681;28;20053;-66
2021/12/31 06:28:19;;;;;;;4.47;2.15;;;;;;;12.91;76.30;101686.75;5072596;28;20068;-66
2021/12/31 06:30:47;;;;;;;4.72;2.03;;;;;;;13.06;75.88;101699.94;5077088;28;20056;-67
2021/12/31 06:33:14;;;;;;;4.90;1.92;;;;;;;13.20;75.00;101687.22;5069436;28;20053;-66
2021/12/31 06:35:43;;;;;;;4.70;1.98;;;;;;;13.37;74.06;101680.25;5064009;28;20048;-66
2021/12/31 06:38:11;;;;;;;4.07;1.55;;;;;;;13.50;73.67;101684.72;5075455;28;20079;-66
2021/12/31 06:40:39;;;;;;;4.03;1.67;;;;;;;13.50;73.51;101674.72;5073427;28;20084;-66
2021/12/31 06:43:07;;;;;;;3.55;1.98;;;;;;;13.46;73.79;101686.19;5061926;28;20171;-66
2021/12/31 06:45:34;;;;;;;4.00;1.70;;;;;;;13.36;74.30;101689.38;5064365;28;20538;-66
2021/12/31 06:48:02;;;;;;;4.15;2.15;;;;;;;13.23;74.69;101695.72;5070633;28;20159;-66
2021/12/31 06:50:30;;;;;;;4.50;1.70;;;;;;;13.12;74.69;101690.97;5055647;28;20080;-66
2021/12/31 06:53:01;;;;;;;6.13;2.10;;;;;;;13.06;75.28;101696.41;5069396;28;20048;-66
2021/12/31 06:55:29;;;;;;;5.32;1.80;;;;;;;12.99;75.42;101708.09;5064682;28;20079;-66
2021/12/31 06:57:57;;;;;;;5.63;1.92;;;;;;;12.96;75.42;101705.81;5074430;28;20076;-66
2021/12/31 07:00:25;;;;;;;4.80;1.70;;;;;;;12.92;75.48;101704.59;5067108;28;20087;-66
2021/12/31 07:03:04;;;;;;;5.00;1.90;;;;;;;12.99;75.39;101704.56;5070762;28;20430;-66
2021/12/31 07:05:32;;;;;;;7.50;1.85;;;;;;;13.08;75.20;101710.53;5082465;28;20048;-65
2021/12/31 07:08:01;;;;;;;5.57;1.70;;;;;;;13.09;74.65;101701.38;5081502;28;20108;-69
2021/12/31 07:10:33;;;;;;;5.43;1.85;;;;;;;13.10;74.53;101703.03;5064257;28;20075;-65
2021/12/31 07:13:04;;;;;;;5.47;1.80;;;;;;;13.06;75.14;101715.31;5066069;28;20121;-65
2021/12/31 07:15:33;;;;;;;3.58;1.38;;;;;;;13.10;74.82;101706.56;4365354;28;10000804;-66
2021/12/31 07:18:00;;;;;;;2.55;1.60;;;;;;;13.22;74.51;101718.34;5059773;28;20041;-66
2021/12/31 07:20:28;;;;;;;4.95;1.73;;;;;;;13.35;73.87;101709.34;5076049;28;20083;-67
2021/12/31 07:22:56;;;;;;;4.80;1.80;;;;;;;13.44;73.26;101702.63;5062095;28;20044;-66
2021/12/31 07:25:25;;;;;;;4.30;1.35;;;;;;;13.61;72.54;101697.50;5047850;28;20057;-66
2021/12/31 07:27:53;;;;;;;4.05;1.48;;;;;;;13.70;72.10;101698.03;5051861;28;20089;-66
2021/12/31 07:30:21;;;;;;;3.40;1.73;;;;;;;13.82;72.02;101716.00;5055917;28;20139;-66
2021/12/31 07:32:49;;;;;;;8.27;1.92;;;;;;;13.91;71.65;101720.03;5052079;28;20539;-66
2021/12/31 07:35:17;;;;;;;2.70;1.40;;;;;;;13.99;71.45;101719.75;5071861;28;20056;-66
2021/12/31 07:37:45;;;;;;;4.38;1.63;;;;;;;14.06;70.68;101719.69;5054422;28;20076;-68
2021/12/31 07:40:13;;;;;;;4.70;1.70;;;;;;;14.02;71.05;101724.72;5059169;28;20164;-67
2021/12/31 07:42:42;;;;;;;4.32;1.95;;;;;;;13.97;71.15;101726.44;5056129;28;20526;-67
2021/12/31 07:45:10;;;;;;;4.43;1.58;;;;;;;13.82;71.50;101716.00;5057682;28;20134;-66
2021/12/31 07:47:38;;;;;;;2.90;1.60;;;;;;;13.67;72.30;101719.03;5057346;28;20071;-64
2021/12/31 07:50:08;;;;;;;3.20;1.75;;;;;;;13.56;72.97;101725.16;5061022;28;20059;-65
2021/12/31 07:52:36;;;;;;;3.42;1.50;;;;;;;13.44;72.84;101734.19;5066483;28;20088;-66
2021/12/31 07:55:04;;;;;;;2.78;1.77;;;;;;;13.33;73.14;101728.44;5062577;28;20080;-63
2021/12/31 07:57:32;;;;;;;7.28;1.80;;;;;;;13.29;73.59;101731.81;5059526;28;20060;-66
2021/12/31 08:00:01;;;;;;;4.80;1.80;;;;;;;13.13;74.09;101724.19;5057020;28;20298;-65
2021/12/31 08:02:29;;;;;;;4.45;1.70;;;;;;;13.14;73.74;101733.94;5060579;28;20076;-66
2021/12/31 08:04:57;;;;;;;4.65;1.88;;;;;;;13.07;74.53;101744.78;5061552;28;20101;-66
2021/12/31 08:07:25;;;;;;;4.07;1.50;;;;;;;13.04;74.46;101748.75;5059836;28;20095;-66
2021/12/31 08:09:52;;;;;;;5.05;1.63;;;;;;;13.01;74.79;101756.44;5062458;28;20084;-66
2021/12/31 08:12:40;;;;;;;3.10;1.40;;;;;;;12.90;74.76;101755.25;5052782;28;20272;-66
2021/12/31 08:15:10;;;;;;;8.10;1.60;;;;;;;12.92;74.63;101769.34;5066308;28;20060;-69
2021/12/31 08:17:38;;;;;;;6.53;1.88;;;;;;;12.89;74.75;101767.09;5064525;28;20073;-67
2021/12/31 08:20:07;;;;;;;5.22;1.70;;;;;;;12.86;74.82;101766.69;5053347;28;20544;-66
2021/12/31 08:22:35;;;;;;;5.45;2.17;;;;;;;12.83;74.95;101761.72;5060608;28;20099;-67
2021/12/31 08:25:03;;;;;;;5.22;1.70;;;;;;;12.80;75.12;101776.47;5059336;28;20048;-66
2021/12/31 08:27:31;;;;;;;3.35;1.75;;;;;;;12.78;75.69;101769.63;5059143;28;20072;-66
2021/12/31 08:29:59;;;;;;;3.63;1.60;;;;;;;12.75;75.43;101762.78;5060869;28;20095;-67
2021/12/31 08:32:28;;;;;;;6.32;2.03;;;;;;;12.73;75.13;101750.56;5068644;28;20052;-66
2021/12/31 08:34:56;;;;;;;5.63;1.65;;;;;;;12.71;75.44;101753.47;5072754;28;20063;-67
2021/12/31 08:37:30;;;;;;;6.25;2.22;;;;;;;12.68;75.80;101752.03;5060272;28;20072;-66
2021/12/31 08:39:58;;;;;;;3.42;1.75;;;;;;;12.67;75.57;101744.13;5066102;28;20048;-66
2021/12/31 08:42:26;;;;;;;8.02;2.63;;;;;;;12.66;75.88;101754.09;5054317;28;20082;-66
2021/12/31 08:44:54;;;;;;;4.13;1.98;;;;;;;12.64;76.02;101749.97;5063288;28;20589;-66
2021/12/31 08:47:29;;;;;;;4.03;1.40;;;;;;;12.64;75.78;101755.34;5075659;28;20044;-67
2021/12/31 08:49:57;;;;;;;3.50;1.65;;;;;;;12.61;76.17;101731.50;5059469;28;20044;-67
2021/12/31 08:52:25;;;;;;;2.35;1.45;;;;;;;12.60;76.17;101743.34;5065315;28;20060;-66
2021/12/31 08:54:53;;;;;;;7.60;1.77;;;;;;;12.58;76.09;101745.41;5068901;28;20087;-66
2021/12/31 08:57:20;;;;;;;3.67;1.38;;;;;;;12.55;75.97;101735.88;5070274;28;20553;-66
2021/12/31 08:59:48;;;;;;;2.95;1.40;;;;;;;12.54;76.01;101733.41;5059754;28;20160;-66
2021/12/31 09:02:16;;;;;;;4.22;1.80;;;;;;;12.52;75.95;101739.00;5063308;28;20088;-66
2021/12/31 09:04:46;;;;;;;3.65;1.67;;;;;;;12.52;76.11;101735.50;5061756;28;20041;-66
2021/12/31 09:07:14;;;;;;;3.85;1.50;;;;;;;12.51;76.47;101733.81;5049020;28;20503;-65
2021/12/31 09:09:41;;;;;;;2.13;1.45;;;;;;;12.50;76.43;101733.00;5059682;28;20053;-66
2021/12/31 09:12:10;;;;;;;3.92;1.73;;;;;;;12.51;76.28;101728.44;5062478;28;20119;-64
2021/12/31 09:14:37;;;;;;;4.32;1.60;;;;;;;12.50;76.17;101732.19;5063424;28;20091;-66
2021/12/31 09:17:05;;;;;;;3.83;1.80;;;;;;;12.49;76.38;101728.66;5070967;28;20091;-65
2021/12/31 09:19:33;;;;;;;4.60;1.73;;;;;;;12.45;76.45;101722.03;5056285;28;20065;-67
2021/12/31 09:22:04;;;;;;;3.05;1.55;;;;;;;12.50;76.74;101726.78;5060789;28;20064;-67
2021/12/31 09:24:32;;;;;;;5.10;1.70;;;;;;;12.51;76.17;101725.75;5065407;28;20048;-68
2021/12/31 09:26:59;;;;;;;5.47;1.60;;;;;;;12.53;76.49;101729.06;5066091;28;20734;-67
2021/12/31 09:29:28;;;;;;;5.60;2.58;;;;;;;12.63;75.72;101735.66;5063589;28;20048;-68
2021/12/31 09:31:55;;;;;;;5.03;2.05;;;;;;;12.77;75.29;101733.72;5069533;28;20073;-68
2021/12/31 09:34:23;;;;;;;4.40;1.58;;;;;;;12.94;74.47;101739.44;5070276;28;20881;-66
2021/12/31 09:36:51;;;;;;;5.45;2.60;;;;;;;13.10;74.36;101748.91;5054568;28;20102;-67
2021/12/31 09:39:20;;;;;;;4.03;1.65;;;;;;;13.31;73.30;101767.50;5062612;28;20072;-68
2021/12/31 09:41:48;;;;;;;3.25;1.50;;;;;;;13.32;73.09;101775.38;5056365;28;20083;-67
2021/12/31 09:44:16;;;;;;;7.15;1.50;;;;;;;13.33;73.03;101770.81;5057991;28;20052;-67
2021/12/31 09:46:43;;;;;;;4.93;1.95;;;;;;;13.26;73.14;101783.53;5070054;28;20308;-67
2021/12/31 09:49:11;;;;;;;4.28;2.10;;;;;;;13.21;73.21;101780.66;5070921;28;20049;-68
2021/12/31 09:51:42;;;;;;;6.32;2.63;;;;;;;13.11;73.82;101778.38;5056424;28;20064;-67
2021/12/31 09:54:10;;;;;;;6.45;2.30;;;;;;;13.04;74.22;101773.03;5063169;28;20064;-68
2021/12/31 09:56:41;;;;;;;7.63;2.75;;;;;;;13.00;74.53;101795.25;5057742;28;20420;-66
2021/12/31 09:59:09;;;;;;;5.00;2.50;;;;;;;12.95;74.64;101781.59;5061625;28;20512;-66
2021/12/31 10:01:45;;;;;;;4.63;2.00;;;;;;;12.93;74.69;101780.97;5063916;28;20105;-70
2021/12/31 10:04:14;;;;;;;3.88;1.70;;;;;;;12.90;74.57;101771.44;5057437;28;20083;-69
2021/12/31 10:07:08;;;;;;;3.58;1.73;;;;;;;12.85;74.78;101776.66;5060398;28;20573;-69
2021/12/31 10:09:38;;;;;;;5.03;2.10;;;;;;;12.84;74.82;101764.19;5054586;28;20060;-69
2021/12/31 10:12:14;;;;;;;4.30;2.15;;;;;;;12.82;75.31;101758.19;5059283;28;20053;-70
2021/12/31 10:14:42;;;;;;;2.42;1.67;;;;;;;12.81;74.92;101759.22;5060273;28;20084;-69
2021/12/31 10:17:10;;;;;;;3.60;2.05;;;;;;;12.80;75.05;101740.56;5070693;28;20080;-71
2021/12/31 10:19:55;;;;;;;4.75;2.00;;;;;;;12.78;75.23;101758.81;5057043;28;20091;-69
2021/12/31 10:22:23;;;;;;;5.35;2.05;;;;;;;12.76;75.45;101777.09;5063980;28;20127;-71
2021/12/31 10:24:51;;;;;;;5.35;2.03;;;;;;;12.78;75.97;101775.84;5067936;28;20089;-72
2021/12/31 10:27:21;;;;;;;4.30;1.90;;;;;;;12.76;75.63;101733.94;5060664;28;20060;-72
2021/12/31 10:29:53;;;;;;;4.88;1.75;;;;;;;12.67;75.63;101718.00;5056976;28;20060;-71
2021/12/31 10:32:22;;;;;;;3.97;2.25;;;;;;;12.67;75.31;101731.47;5054958;28;20044;-71
2021/12/31 10:34:50;;;;;;;4.25;2.03;;;;;;;12.65;75.87;101738.97;5054405;28;20727;-71
2021/12/31 10:37:20;;;;;;;10.60;2.17;;;;;;;12.64;75.83;101739.19;5062976;28;20084;-70
2021/12/31 10:39:56;;;;;;;3.83;2.08;;;;;;;12.62;75.75;101747.47;5058608;28;20094;-71
2021/12/31 10:42:31;;;;;;;2.92;1.70;;;;;;;12.61;75.73;101737.72;5059901;28;20056;-71
2021/12/31 10:45:00;;;;;;;4.72;1.90;;;;;;;12.60;75.76;101752.25;5069325;28;20080;-71
2021/12/31 10:47:31;;;;;;;6.43;1.90;;;;;;;12.60;75.63;101767.59;5071590;28;20351;-72
2021/12/31 10:50:16;;;;;;;3.13;1.75;;;;;;;12.57;76.06;101766.16;5056320;28;20076;-71
2021/12/31 10:52:56;;;;;;;4.90;2.00;;;;;;;12.60;75.87;101759.53;5059417;28;20044;-71
2021/12/31 10:55:27;;;;;;;3.53;1.80;;;;;;;12.58;75.90;101767.81;5057318;28;20064;-71
2021/12/31 10:57:58;;;;;;;4.85;2.03;;;;;;;12.58;76.05;101767.00;5061169;28;20076;-71
2021/12/31 11:00:28;;;;;;;3.33;1.80;;;;;;;12.57;75.56;101765.34;5068798;28;20075;-71
2021/12/31 11:02:57;;;;;;;4.55;1.90;;;;;;;12.59;75.42;101763.25;5055882;28;20045;-71
2021/12/31 11:05:27;;;;;;;4.68;1.88;;;;;;;12.56;75.72;101751.03;5060396;28;20055;-71
2021/12/31 11:08:00;;;;;;;4.13;1.67;;;;;;;12.58;75.89;101759.72;5055846;28;20044;-71
2021/12/31 11:10:33;;;;;;;;;;;;;;;12.59;75.59;101752.47;5067089;28;20075;-72
2021/12/31 11:13:04;;;;;;;4.38;1.75;;;;;;;12.59;76.01;101745.22;5075170;28;20326;-72
2021/12/31 11:15:31;;;;;;;3.10;1.73;;;;;;;12.59;75.61;101737.13;5057421;28;20099;-71
2021/12/31 11:17:59;;;;;;;3.30;1.98;;;;;;;12.58;75.95;101748.13;5061413;28;20100;-71
2021/12/31 11:20:27;;;;;;;3.97;1.88;;;;;;;12.59;75.61;101747.06;5060824;28;20211;-73
2021/12/31 11:22:55;;;;;;;5.35;1.80;;;;;;;12.55;75.73;101721.56;5059932;28;20063;-72
2021/12/31 11:25:51;;;;;;;4.93;1.88;;;;;;;12.62;75.90;101725.91;5043684;28;20109;-70
2021/12/31 11:28:26;;;;;;;6.80;1.98;;;;;;;12.65;75.77;101736.25;5064111;28;20075;-71
2021/12/31 11:30:56;;;;;;;5.40;1.55;;;;;;;12.65;75.84;101722.78;5069943;28;20044;-71
2021/12/31 11:33:30;;;;;;;3.80;1.67;;;;;;;12.66;75.94;101731.69;5054748;28;20060;-71